TimeCDT,TemperatureF,Dew PointF,Humidity,Sea Level PressureIn,VisibilityMPH,Wind Direction,Wind SpeedMPH,Gust SpeedMPH,PrecipitationIn,Events,Conditions,WindDirDegrees,DateUTC
12:51 AM,48.9,37.0,64,30.23,10.0,Calm,Calm,-,N/A,,Clear,0,2012-09-23 05:51:00
1:51 AM,50.0,37.9,63,30.25,10.0,Calm,Calm,-,N/A,,Clear,0,2012-09-23 06:51:00
2:51 AM,48.2,39.2,71,30.26,10.0,NW,4.6,-,N/A,,Clear,320,2012-09-23 07:51:00
3:51 AM,48.0,39.0,71,30.26,10.0,Calm,Calm,-,N/A,,Clear,0,2012-09-23 08:51:00
4:51 AM,46.0,37.9,73,30.27,10.0,Calm,Calm,-,N/A,,Clear,0,2012-09-23 09:51:00
5:51 AM,46.0,37.9,73,30.28,10.0,Calm,Calm,-,N/A,,Clear,0,2012-09-23 10:51:00
6:51 AM,44.1,37.9,79,30.30,10.0,Calm,Calm,-,N/A,,Partly Cloudy,0,2012-09-23 11:51:00
7:51 AM,48.2,41.0,76,30.32,10.0,West,3.5,-,N/A,,Scattered Clouds,270,2012-09-23 12:51:00
8:51 AM,53.1,39.9,61,30.33,10.0,Calm,Calm,-,N/A,,Partly Cloudy,0,2012-09-23 13:51:00
9:51 AM,57.9,37.9,47,30.33,10.0,ENE,3.5,-,N/A,,Partly Cloudy,60,2012-09-23 14:51:00
10:51 AM,61.0,36.0,39,30.33,10.0,Calm,Calm,-,N/A,,Scattered Clouds,0,2012-09-23 15:51:00
11:51 AM,63.0,35.1,35,30.34,10.0,Calm,Calm,-,N/A,,Scattered Clouds,0,2012-09-23 16:51:00
12:51 PM,64.9,36.0,34,30.32,10.0,West,9.2,-,N/A,,Scattered Clouds,280,2012-09-23 17:51:00
1:51 PM,66.0,35.1,32,30.30,10.0,Variable,5.8,-,N/A,,Scattered Clouds,0,2012-09-23 18:51:00
2:51 PM,66.9,32.0,27,30.27,10.0,NNW,8.1,-,N/A,,Partly Cloudy,340,2012-09-23 19:51:00
3:51 PM,66.9,33.1,28,30.26,10.0,Variable,4.6,-,N/A,,Partly Cloudy,0,2012-09-23 20:51:00
4:51 PM,68.0,34.0,28,30.25,10.0,NNW,5.8,-,N/A,,Partly Cloudy,340,2012-09-23 21:51:00
5:51 PM,66.2,33.8,30,30.24,10.0,Calm,Calm,-,N/A,,Partly Cloudy,0,2012-09-23 22:51:00
6:51 PM,63.0,32.0,31,30.25,10.0,North,3.5,-,N/A,,Scattered Clouds,360,2012-09-23 23:51:00
7:51 PM,60.1,36.0,41,30.26,10.0,Calm,Calm,-,N/A,,Partly Cloudy,0,2012-09-24 00:51:00
8:51 PM,55.0,39.9,57,30.27,10.0,Calm,Calm,-,N/A,,Partly Cloudy,0,2012-09-24 01:51:00
9:51 PM,55.0,39.9,57,30.27,10.0,Calm,Calm,-,N/A,,Partly Cloudy,0,2012-09-24 02:51:00
10:51 PM,54.0,37.9,55,30.26,10.0,Calm,Calm,-,N/A,,Partly Cloudy,0,2012-09-24 03:51:00
11:51 PM,53.1,39.9,61,30.26,10.0,Calm,Calm,-,N/A,,Partly Cloudy,0,2012-09-24 04:51:00